Time;durP1;ratioP1;P1;durP2;ratioP2;P2;SDS_P1;SDS_P2;PMS_P1;PMS_P2;Temp;Humidity;BMP_temperature;BMP_pressure;BME280_temperature;BME280_humidity;BME280_pressure;Samples;Min_cycle;Max_cycle;Signal;HPM_P1;HPM_P2
2022/12/11 00:02:39;;;;;;;;;;;;;;;18.24;58.27;100391.33;2336660;75;50242;-77
2022/12/11 00:05:41;;;;;;;;;;;;;;;18.20;58.33;100397.23;2307077;76;50657;-77
2022/12/11 00:08:42;;;;;;;;;;;;;;;18.15;58.34;100389.77;2336379;75;51534;-77
2022/12/11 00:11:44;;;;;;;;;;;;;;;18.11;58.44;100393.84;2336904;76;50605;-77
2022/12/11 00:14:45;;;;;;;;;;;;;;;18.07;58.61;100379.16;2362777;73;51542;-76
2022/12/11 00:17:47;;;;;;;;;;;;;;;18.04;58.71;100366.15;2352066;74;50721;-77
2022/12/11 00:20:49;;;;;;;;;;;;;;;18.10;58.61;100369.41;2325870;75;51430;-77
2022/12/11 00:23:50;;;;;;;;;;;;;;;18.18;58.44;100379.19;2358562;75;51452;-77
2022/12/11 00:26:52;;;;;;;;;;;;;;;18.21;58.37;100374.79;2341929;73;50253;-77
2022/12/11 00:29:53;;;;;;;;;;;;;;;18.27;58.27;100383.43;2377699;75;50431;-77
2022/12/11 00:32:55;;;;;;;;;;;;;;;18.31;58.16;100379.34;2346983;75;49591;-77
2022/12/11 00:35:56;;;;;;;;;;;;;;;18.34;58.13;100383.01;2346986;75;50697;-77
2022/12/11 00:38:58;;;;;;;;;;;;;;;18.39;58.07;100383.77;2377209;73;52319;-77
2022/12/11 00:42:00;;;;;;;;;;;;;;;18.41;57.99;100375.03;2346721;75;50620;-77
2022/12/11 00:45:01;;;;;;;;;;;;;;;18.39;58.05;100381.91;2333676;73;52305;-77
2022/12/11 00:48:03;;;;;;;;;;;;;;;18.37;58.08;100378.61;2352959;74;51591;-77
2022/12/11 00:51:05;;;;;;;;;;;;;;;18.34;58.12;100377.66;2365889;75;50588;-77
2022/12/11 00:54:06;;;;;;;;;;;;;;;18.31;58.13;100384.70;2377495;75;50211;-77
2022/12/11 00:57:08;;;;;;;;;;;;;;;18.26;58.22;100379.93;2308018;76;51938;-77
2022/12/11 01:00:11;;;;;;;;;;;;;;;18.24;58.24;100376.60;2338302;75;50778;-77
2022/12/11 01:03:13;;;;;;;;;;;;;;;18.17;58.38;100369.50;2346783;75;50665;-77
2022/12/11 01:06:16;;;;;;;;;;;;;;;18.12;58.61;100363.36;2377180;73;51519;-77
2022/12/11 01:12:37;;;;;;;;;;;;;;;18.19;58.57;100367.48;2351434;75;22298;-77
2022/12/11 01:15:39;;;;;;;;;;;;;;;18.25;58.36;100370.22;2355847;73;51404;-77
2022/12/11 01:18:41;;;;;;;;;;;;;;;18.25;58.31;100378.25;2418158;72;50519;-77
2022/12/11 01:21:42;;;;;;;;;;;;;;;18.24;58.28;100377.94;2387698;73;51135;-77
2022/12/11 01:24:44;;;;;;;;;;;;;;;18.22;58.28;100379.14;2388003;73;50092;-76
2022/12/11 01:27:45;;;;;;;;;;;;;;;18.20;58.30;100381.17;2355640;74;50415;-77
2022/12/11 01:30:47;;;;;;;;;;;;;;;18.17;58.33;100381.55;2347052;75;50607;-77
2022/12/11 01:33:48;;;;;;;;;;;;;;;18.14;58.39;100388.63;2347065;75;52487;-77
2022/12/11 01:36:51;;;;;;;;;;;;;;;18.05;58.66;100390.04;2377352;73;50698;-77
2022/12/11 01:39:53;;;;;;;;;;;;;;;18.01;58.80;100387.43;2377590;75;51475;-77
2022/12/11 01:42:54;;;;;;;;;;;;;;;18.02;58.81;100382.38;2346890;75;51481;-77
2022/12/11 01:45:56;;;;;;;;;;;;;;;18.06;58.76;100375.66;2354302;73;50984;-77
2022/12/11 01:48:58;;;;;;;;;;;;;;;18.14;58.65;100376.58;2378678;73;50200;-77
2022/12/11 01:52:01;;;;;;;;;;;;;;;18.18;58.56;100377.84;2375373;75;51530;-76
2022/12/11 01:55:03;;;;;;;;;;;;;;;18.21;58.56;100377.47;2376221;75;51520;-76
2022/12/11 01:58:05;;;;;;;;;;;;;;;18.27;58.43;100382.09;2319673;75;51493;-77
2022/12/11 02:01:06;;;;;;;;;;;;;;;18.32;58.30;100386.37;2377414;75;50725;-76
2022/12/11 02:04:08;;;;;;;;;;;;;;;18.35;58.23;100381.98;2377300;75;50362;-76
2022/12/11 02:07:09;;;;;;;;;;;;;;;18.35;58.18;100384.66;2377403;75;50249;-76
2022/12/11 02:10:11;;;;;;;;;;;;;;;18.33;58.17;100385.34;2347129;75;51685;-76
2022/12/11 02:13:14;;;;;;;;;;;;;;;18.31;58.20;100387.89;2377391;75;50100;-76
2022/12/11 02:16:18;;;;;;;;;;;;;;;18.27;58.20;100384.77;2383934;73;50325;-76
2022/12/11 02:19:21;;;;;;;;;;;;;;;18.22;58.29;100393.88;2372004;74;50796;-75
2022/12/11 02:22:24;;;;;;;;;;;;;;;18.18;58.46;100387.22;2333596;75;51756;-76
2022/12/11 02:25:44;;;;;;;;;;;;;;;18.14;58.51;100381.42;2370761;74;50174;-76
2022/12/11 02:28:49;;;;;;;;;;;;;;;18.09;58.64;100390.52;2377287;75;50618;-76
2022/12/11 02:31:51;;;;;;;;;;;;;;;18.09;58.76;100387.02;2377519;75;51560;-76
2022/12/11 02:34:54;;;;;;;;;;;;;;;18.13;58.74;100385.09;2347002;75;51743;-76
2022/12/11 02:37:57;;;;;;;;;;;;;;;18.22;58.53;100385.33;2366195;74;51459;-76
2022/12/11 02:40:59;;;;;;;;;;;;;;;18.26;58.38;100383.09;2377554;75;50103;-76
2022/12/11 02:44:01;;;;;;;;;;;;;;;18.27;58.30;100378.08;2377461;75;50255;-76
2022/12/11 02:47:03;;;;;;;;;;;;;;;18.26;58.28;100379.08;2344698;73;52413;-76
2022/12/11 02:50:07;;;;;;;;;;;;;;;18.22;58.28;100373.79;2405972;73;51479;-76
2022/12/11 02:53:08;;;;;;;;;;;;;;;18.23;58.22;100376.78;2398472;73;51599;-76
2022/12/11 02:56:11;;;;;;;;;;;;;;;18.17;58.33;100375.69;2347050;75;50687;-76
2022/12/11 02:59:14;;;;;;;;;;;;;;;18.14;58.40;100368.55;2347015;75;51131;-76
2022/12/11 03:02:16;;;;;;;;;;;;;;;18.05;58.62;100371.30;2377489;74;51448;-76
2022/12/11 03:05:17;;;;;;;;;;;;;;;18.00;58.80;100372.36;2377687;75;51410;-76
2022/12/11 03:08:19;;;;;;;;;;;;;;;18.00;58.90;100367.01;2377366;75;51493;-76
2022/12/11 03:11:21;;;;;;;;;;;;;;;18.04;58.83;100377.69;2346911;75;52862;-76
2022/12/11 03:14:22;;;;;;;;;;;;;;;18.09;58.78;100370.95;2377516;75;51418;-76
2022/12/11 03:17:25;;;;;;;;;;;;;;;18.14;58.65;100375.23;2377293;75;51463;-76
2022/12/11 03:20:41;;;;;;;;;;;;;;;18.18;58.54;100373.31;2286973;77;51673;-76
2022/12/11 03:23:46;;;;;;;;;;;;;;;18.26;58.37;100381.75;2274305;78;50763;-75
2022/12/11 03:26:50;;;;;;;;;;;;;;;18.28;58.29;100373.03;2273850;77;50781;-76
2022/12/11 03:29:53;;;;;;;;;;;;;;;18.30;58.17;100376.36;2304027;77;51750;-75
2022/12/11 03:32:56;;;;;;;;;;;;;;;18.30;58.17;100384.91;2274340;78;51619;-75
2022/12/11 03:36:00;;;;;;;;;;;;;;;18.28;58.19;100382.41;2277364;76;51042;-75
2022/12/11 03:39:03;;;;;;;;;;;;;;;18.23;58.20;100382.13;2274335;77;51607;-76
2022/12/11 03:42:05;;;;;;;;;;;;;;;18.20;58.26;100381.17;2274310;78;50288;-76
2022/12/11 03:45:07;;;;;;;;;;;;;;;18.16;58.30;100381.21;2274322;78;51469;-76
2022/12/11 03:48:09;;;;;;;;;;;;;;;18.13;58.38;100369.55;2274085;78;50554;-74
2022/12/11 03:51:10;;;;;;;;;;;;;;;18.04;58.56;100370.98;2274349;78;51422;-75
2022/12/11 03:54:12;;;;;;;;;;;;;;;18.00;58.74;100368.34;2274307;78;53104;-75
2022/12/11 03:57:15;;;;;;;;;;;;;;;18.05;58.72;100367.80;2305813;75;51535;-75
2022/12/11 04:00:17;;;;;;;;;;;;;;;18.14;58.58;100368.03;2349264;73;49399;-76
2022/12/11 04:03:19;;;;;;;;;;;;;;;18.22;58.39;100367.92;2358174;75;51541;-76
2022/12/11 04:06:20;;;;;;;;;;;;;;;18.26;58.23;100372.37;2358037;74;51506;-77
2022/12/11 04:09:22;;;;;;;;;;;;;;;18.27;58.16;100367.36;2337037;73;51556;-77
2022/12/11 04:12:24;;;;;;;;;;;;;;;18.26;58.11;100364.34;2365277;73;51464;-76
2022/12/11 04:15:25;;;;;;;;;;;;;;;18.22;58.15;100367.09;2343650;75;51451;-78
2022/12/11 04:25:06;;;;;;;;;;;;;;;18.14;58.17;100363.19;2351971;75;22186;-77
2022/12/11 04:28:08;;;;;;;;;;;;;;;18.08;58.30;100358.56;2377134;75;50342;-77
2022/12/11 04:31:16;;;;;;;;;;;;;;;18.02;58.49;100361.48;2347124;75;50036;-77
2022/12/11 04:34:18;;;;;;;;;;;;;;;18.03;58.60;100356.44;2377298;75;51569;-77
2022/12/11 04:37:20;;;;;;;;;;;;;;;18.06;58.54;100351.56;2320347;75;51232;-78
2022/12/11 04:40:21;;;;;;;;;;;;;;;18.11;58.42;100355.50;2361658;73;50331;-77
2022/12/11 04:43:23;;;;;;;;;;;;;;;18.16;58.28;100352.61;2362810;75;50240;-77
2022/12/11 04:46:24;;;;;;;;;;;;;;;18.21;58.17;100352.87;2332619;74;50838;-77
2022/12/11 04:49:26;;;;;;;;;;;;;;;18.23;58.13;100351.34;2332695;75;51193;-76
2022/12/11 04:52:28;;;;;;;;;;;;;;;18.28;58.03;100353.77;2362646;75;50752;-77
2022/12/11 04:55:29;;;;;;;;;;;;;;;18.32;57.98;100351.56;2362549;75;50284;-76
2022/12/11 04:58:31;;;;;;;;;;;;;;;18.32;57.95;100352.08;2363419;74;50389;-77
2022/12/11 05:01:33;;;;;;;;;;;;;;;18.30;57.90;100351.42;2347416;75;50355;-77
2022/12/11 05:04:34;;;;;;;;;;;;;;;18.27;57.94;100353.97;2377901;75;50251;-77
2022/12/11 05:07:36;;;;;;;;;;;;;;;18.25;57.92;100356.00;2378030;74;50681;-78
2022/12/11 05:10:38;;;;;;;;;;;;;;;18.20;57.95;100353.05;2401614;73;50664;-77
2022/12/11 05:13:39;;;;;;;;;;;;;;;18.17;58.00;100352.92;2306757;75;52928;-78
2022/12/11 05:16:41;;;;;;;;;;;;;;;18.14;58.00;100352.48;2362898;74;50600;-76
2022/12/11 05:19:42;;;;;;;;;;;;;;;18.08;58.18;100354.55;2367576;75;51428;-77
2022/12/11 05:22:44;;;;;;;;;;;;;;;18.03;58.41;100349.74;2346772;74;51572;-77
2022/12/11 05:25:47;;;;;;;;;;;;;;;18.10;58.31;100353.34;2392173;73;50280;-77
2022/12/11 05:28:53;;;;;;;;;;;;;;;18.16;58.14;100345.92;2417237;72;50216;-78
2022/12/11 05:31:55;;;;;;;;;;;;;;;18.25;58.05;100347.97;2336727;76;51534;-74
2022/12/11 05:34:57;;;;;;;;;;;;;;;18.29;57.93;100349.27;2353619;75;51491;-75
2022/12/11 05:37:59;;;;;;;;;;;;;;;18.30;57.87;100348.75;2320327;75;51059;-75
2022/12/11 05:41:05;;;;;;;;;;;;;;;18.31;57.70;100347.20;2347066;75;51557;-75
2022/12/11 05:44:06;;;;;;;;;;;;;;;18.26;57.71;100341.58;2377586;74;51460;-75
2022/12/11 05:47:08;;;;;;;;;;;;;;;18.21;57.64;100342.17;2346745;75;50421;-75
2022/12/11 05:50:10;;;;;;;;;;;;;;;18.17;57.62;100334.17;2346820;75;51116;-75
2022/12/11 05:53:11;;;;;;;;;;;;;;;18.14;57.62;100333.22;2374451;75;50312;-75
2022/12/11 05:56:14;;;;;;;;;;;;;;;18.10;57.65;100335.11;2367617;72;50348;-75
2022/12/11 05:59:15;;;;;;;;;;;;;;;18.04;57.79;100332.17;2416177;73;50675;-75
2022/12/11 06:02:17;;;;;;;;;;;;;;;18.05;57.71;100333.81;2320240;75;50940;-75
2022/12/11 06:05:19;;;;;;;;;;;;;;;18.09;57.62;100330.79;2377536;75;51543;-75
2022/12/11 06:08:20;;;;;;;;;;;;;;;18.14;57.48;100337.75;2377295;75;50661;-74
2022/12/11 06:11:22;;;;;;;;;;;;;;;18.19;57.29;100331.33;2377612;75;51413;-74
2022/12/11 06:14:24;;;;;;;;;;;;;;;18.19;57.17;100328.13;2347003;75;51650;-75
2022/12/11 06:17:25;;;;;;;;;;;;;;;18.25;57.02;100331.89;2375508;73;50600;-75
2022/12/11 06:20:27;;;;;;;;;;;;;;;18.30;57.22;100335.36;2377863;75;51390;-73
2022/12/11 06:23:28;;;;;;;;;;;;;;;18.32;57.28;100340.02;2367175;73;51135;-78
2022/12/11 06:26:30;;;;;;;;;;;;;;;18.31;57.30;100332.47;2335901;75;52307;-73
2022/12/11 06:29:32;;;;;;;;;;;;;;;18.35;57.07;100335.63;2377817;74;50088;-75
2022/12/11 06:32:34;;;;;;;;;;;;;;;18.26;57.40;100333.06;2377687;75;50728;-74
2022/12/11 06:35:35;;;;;;;;;;;;;;;18.21;57.40;100322.56;2377629;75;50323;-74
2022/12/11 06:38:37;;;;;;;;;;;;;;;18.16;57.32;100317.80;2377370;75;50230;-74
2022/12/11 06:41:39;;;;;;;;;;;;;;;18.13;57.29;100322.17;2377599;75;50372;-76
2022/12/11 06:44:40;;;;;;;;;;;;;;;18.09;57.39;100324.09;2377697;75;50305;-76
2022/12/11 06:47:42;;;;;;;;;;;;;;;18.07;57.23;100317.58;2377617;75;50727;-75
2022/12/11 06:50:44;;;;;;;;;;;;;;;18.08;57.44;100329.11;2321476;75;51120;-76
2022/12/11 06:53:45;;;;;;;;;;;;;;;18.10;57.58;100333.77;2364772;73;50654;-77
2022/12/11 06:56:47;;;;;;;;;;;;;;;18.11;57.68;100339.44;2347199;73;50331;-75
2022/12/11 06:59:48;;;;;;;;;;;;;;;18.09;57.65;100337.48;2347476;75;49986;-76
2022/12/11 07:02:50;;;;;;;;;;;;;;;18.08;57.78;100340.64;2321507;74;51612;-77
2022/12/11 07:05:52;;;;;;;;;;;;;;;18.05;57.44;100337.83;2379189;74;51643;-75
2022/12/11 07:08:53;;;;;;;;;;;;;;;18.00;57.40;100344.25;2378041;75;51282;-77
2022/12/11 07:11:55;;;;;;;;;;;;;;;17.97;57.39;100339.28;2378199;75;50256;-76
2022/12/11 07:14:56;;;;;;;;;;;;;;;17.95;57.46;100344.50;2326169;73;51698;-75
2022/12/11 07:17:58;;;;;;;;;;;;;;;17.91;57.55;100332.00;2350795;74;50632;-76
2022/12/11 07:20:59;;;;;;;;;;;;;;;17.89;57.60;100337.22;2378063;75;50627;-77
2022/12/11 07:24:01;;;;;;;;;;;;;;;17.86;57.66;100340.28;2364979;73;50229;-76
2022/12/11 07:27:03;;;;;;;;;;;;;;;17.89;57.86;100341.23;2358829;72;51671;-76
2022/12/11 07:30:05;;;;;;;;;;;;;;;17.94;57.90;100345.02;2350492;74;50086;-77
2022/12/11 07:33:07;;;;;;;;;;;;;;;17.99;57.61;100355.99;2336489;73;50278;-76
2022/12/11 07:36:09;;;;;;;;;;;;;;;17.99;57.71;100351.16;2366961;72;50668;-74
2022/12/11 07:39:11;;;;;;;;;;;;;;;18.02;57.82;100360.14;2334102;75;52508;-74
2022/12/11 07:42:12;;;;;;;;;;;;;;;18.06;57.97;100354.75;2381097;73;51490;-75
2022/12/11 07:45:14;;;;;;;;;;;;;;;18.10;57.86;100348.50;2386516;73;52202;-76
2022/12/11 07:48:16;;;;;;;;;;;;;;;18.09;57.88;100357.05;2369360;73;53769;-77
2022/12/11 07:51:19;;;;;;;;;;;;;;;18.09;57.93;100354.38;2321640;73;51230;-76
2022/12/11 07:54:20;;;;;;;;;;;;;;;18.08;57.93;100355.88;2376910;73;51370;-76
2022/12/11 07:57:22;;;;;;;;;;;;;;;18.05;57.90;100356.58;2388322;72;51525;-76
2022/12/11 08:00:24;;;;;;;;;;;;;;;18.09;57.93;100358.39;2381968;73;50267;-75
2022/12/11 08:03:25;;;;;;;;;;;;;;;18.08;57.87;100355.88;2322914;73;51628;-77
2022/12/11 08:06:28;;;;;;;;;;;;;;;18.03;58.01;100354.61;2383575;72;51441;-75
2022/12/11 08:09:30;;;;;;;;;;;;;;;18.02;58.08;100356.95;2382166;73;52343;-76
2022/12/11 08:12:31;;;;;;;;;;;;;;;18.01;58.09;100359.84;2400218;73;51475;-75
2022/12/11 08:15:33;;;;;;;;;;;;;;;18.06;58.05;100368.14;2371428;73;51412;-76
2022/12/11 08:18:34;;;;;;;;;;;;;;;18.09;57.88;100362.41;2402993;72;52316;-75
2022/12/11 08:21:36;;;;;;;;;;;;;;;18.10;57.74;100370.75;2417409;73;50644;-75
2022/12/11 08:24:37;;;;;;;;;;;;;;;18.06;57.80;100362.27;2361227;73;51440;-78
2022/12/11 08:27:39;;;;;;;;;;;;;;;18.05;57.84;100369.14;2329684;74;52829;-73
2022/12/11 08:30:41;;;;;;;;;;;;;;;18.04;57.80;100375.00;2353338;73;50297;-73
2022/12/11 08:33:43;;;;;;;;;;;;;;;18.00;58.00;100375.05;2346500;74;50247;-74
2022/12/11 08:36:44;;;;;;;;;;;;;;;17.96;58.15;100372.43;2387395;73;51694;-73
2022/12/11 08:39:46;;;;;;;;;;;;;;;17.95;58.18;100366.73;2327181;74;52327;-75
2022/12/11 08:42:47;;;;;;;;;;;;;;;17.94;58.13;100366.42;2336450;75;51383;-74
2022/12/11 08:45:49;;;;;;;;;;;;;;;17.93;58.22;100363.44;2360374;74;51428;-74
2022/12/11 08:48:51;;;;;;;;;;;;;;;17.99;58.15;100370.72;2403875;73;51441;-75
2022/12/11 08:51:53;;;;;;;;;;;;;;;18.02;58.08;100364.98;2334926;73;52385;-75
2022/12/11 08:54:55;;;;;;;;;;;;;;;18.06;58.12;100360.93;2333916;74;50500;-74
2022/12/11 08:57:56;;;;;;;;;;;;;;;18.11;58.14;100364.88;2328648;75;50389;-75
2022/12/11 09:00:58;;;;;;;;;;;;;;;18.18;57.98;100363.12;2348660;75;50722;-74
2022/12/11 09:04:00;;;;;;;;;;;;;;;18.20;58.16;100359.75;2305033;75;50854;-75
2022/12/11 09:07:01;;;;;;;;;;;;;;;18.26;58.13;100356.31;2324227;75;51160;-74
2022/12/11 09:10:03;;;;;;;;;;;;;;;18.22;58.21;100362.56;2340873;75;50674;-74
2022/12/11 09:13:05;;;;;;;;;;;;;;;18.17;58.22;100364.15;2341012;75;51796;-75
2022/12/11 09:16:08;;;;;;;;;;;;;;;18.18;58.08;100370.64;2377597;73;50337;-74
2022/12/11 09:19:12;;;;;;;;;;;;;;;18.17;58.01;100372.18;2352155;73;50142;-74
2022/12/11 09:22:14;;;;;;;;;;;;;;;18.13;58.26;100376.23;2396704;73;50684;-74
2022/12/11 09:25:16;;;;;;;;;;;;;;;18.13;58.36;100373.05;2336273;75;50324;-74
2022/12/11 09:28:18;;;;;;;;;;;;;;;18.05;58.31;100374.48;2368249;75;51434;-75
2022/12/11 09:31:27;;;;;;;;;;;;;;;18.00;58.67;100372.87;2320721;75;52608;-75
2022/12/11 09:34:29;;;;;;;;;;;;;;;18.01;58.71;100376.72;2377387;75;51450;-76
2022/12/11 09:37:30;;;;;;;;;;;;;;;18.01;58.68;100358.50;2346870;75;50031;-76
2022/12/11 09:40:32;;;;;;;;;;;;;;;18.12;58.33;100358.52;2334653;75;50265;-76
2022/12/11 09:43:35;;;;;;;;;;;;;;;18.18;57.99;100357.77;2317820;75;49611;-75
2022/12/11 09:46:37;;;;;;;;;;;;;;;18.17;57.92;100360.95;2342380;73;50382;-76
2022/12/11 09:49:40;;;;;;;;;;;;;;;18.22;57.67;100357.72;2355089;75;50729;-77
2022/12/11 09:52:49;;;;;;;;;;;;;;;18.18;57.65;100356.42;2376296;75;50695;-76
2022/12/11 09:55:55;;;;;;;;;;;;;;;18.13;57.71;100356.16;2315510;75;52537;-76
2022/12/11 09:59:15;;;;;;;;;;;;;;;18.14;57.58;100344.45;2338411;74;50783;-73
2022/12/11 10:02:35;;;;;;;;;;;;;;;18.12;57.46;100335.77;2378358;74;50647;-77
2022/12/11 10:05:41;;;;;;;;;;;;;;;18.02;57.83;100336.05;2378019;75;51517;-78
2022/12/11 10:08:44;;;;;;;;;;;;;;;17.96;57.82;100330.94;2337301;75;52360;-76
2022/12/11 10:11:53;;;;;;;;;;;;;;;17.92;57.94;100329.64;2350958;75;51448;-77
2022/12/11 10:14:56;;;;;;;;;;;;;;;18.00;57.63;100327.37;2354822;75;50373;-76
2022/12/11 10:17:58;;;;;;;;;;;;;;;18.02;57.59;100324.00;2380359;73;50304;-77
2022/12/11 10:21:00;;;;;;;;;;;;;;;18.08;57.37;100313.87;2332588;75;52489;-76
2022/12/11 10:24:02;;;;;;;;;;;;;;;18.24;56.98;100322.22;2363005;75;50310;-76
2022/12/11 10:27:18;;;;;;;;;;;;;;;18.25;56.88;100318.51;2373080;73;50053;-77
2022/12/11 10:30:21;;;;;;;;;;;;;;;18.26;56.78;100321.49;2377796;75;50671;-75
2022/12/11 10:33:31;;;;;;;;;;;;;;;18.27;56.67;100315.96;2320591;75;50061;-76
2022/12/11 10:36:34;;;;;;;;;;;;;;;18.26;56.94;100319.67;2377084;73;51420;-77
2022/12/11 10:39:35;;;;;;;;;;;;;;;18.24;56.96;100315.00;2377776;75;50230;-76
2022/12/11 10:42:37;;;;;;;;;;;;;;;18.20;57.23;100310.20;2319561;75;51669;-76
2022/12/11 10:45:38;;;;;;;;;;;;;;;18.17;57.34;100302.56;2346669;75;50962;-77
2022/12/11 10:48:47;;;;;;;;;;;;;;;18.05;57.79;100303.03;2382944;73;50603;-77
2022/12/11 10:51:48;;;;;;;;;;;;;;;17.97;58.02;100304.99;2398204;73;50248;-76
2022/12/11 10:54:58;;;;;;;;;;;;;;;17.91;58.18;100299.89;2377724;75;50268;-76
2022/12/11 10:58:00;;;;;;;;;;;;;;;17.96;58.03;100300.16;2347409;75;52584;-77
2022/12/11 11:01:09;;;;;;;;;;;;;;;18.06;57.82;100305.22;2377484;75;51652;-77
2022/12/11 11:04:15;;;;;;;;;;;;;;;18.09;57.64;100296.80;2346771;75;50259;-77
2022/12/11 11:07:23;;;;;;;;;;;;;;;18.12;57.54;100292.92;2377520;73;51561;-77
2022/12/11 11:10:25;;;;;;;;;;;;;;;18.08;57.13;100292.97;2320350;75;51464;-76
2022/12/11 11:13:27;;;;;;;;;;;;;;;18.04;56.56;100289.84;2377733;75;50332;-77
2022/12/11 11:16:29;;;;;;;;;;;;;;;18.02;56.30;100294.03;2353121;72;51491;-77
2022/12/11 11:19:32;;;;;;;;;;;;;;;18.03;56.16;100294.37;2416477;73;50208;-77
2022/12/11 11:22:33;;;;;;;;;;;;;;;18.04;56.07;100289.33;2419761;73;52254;-77
2022/12/11 11:25:35;;;;;;;;;;;;;;;18.01;56.14;100284.87;2408937;73;51443;-77
2022/12/11 11:28:37;;;;;;;;;;;;;;;17.86;56.47;100282.22;2377675;75;51572;-77
2022/12/11 11:31:41;;;;;;;;;;;;;;;17.81;56.67;100274.75;2378105;75;51632;-77
2022/12/11 11:34:42;;;;;;;;;;;;;;;17.80;56.74;100268.23;2378335;75;22571;-77
2022/12/11 11:37:45;;;;;;;;;;;;;;;17.83;56.69;100265.20;2377886;75;50172;-77
2022/12/11 11:40:51;;;;;;;;;;;;;;;17.90;56.56;100266.09;2375888;75;49784;-75
2022/12/11 11:43:55;;;;;;;;;;;;;;;17.97;56.43;100260.83;2379105;75;50672;-76
2022/12/11 11:46:58;;;;;;;;;;;;;;;18.10;56.09;100260.97;2362457;72;51903;-77
2022/12/11 11:50:02;;;;;;;;;;;;;;;18.13;55.98;100257.08;2404803;73;50109;-77
2022/12/11 11:53:04;;;;;;;;;;;;;;;18.18;55.88;100251.98;2419994;73;50344;-78
2022/12/11 11:56:24;;;;;;;;;;;;;;;18.21;55.74;100254.28;2407844;73;50659;-76
2022/12/11 11:59:27;;;;;;;;;;;;;;;18.22;55.70;100245.25;2380087;74;22376;-77
2022/12/11 12:02:29;;;;;;;;;;;;;;;18.22;55.67;100243.91;2378211;75;50420;-77
2022/12/11 12:05:32;;;;;;;;;;;;;;;18.15;55.80;100249.70;2378195;75;50200;-78
2022/12/11 12:08:35;;;;;;;;;;;;;;;18.12;55.88;100239.38;2335826;75;50770;-78
2022/12/11 12:11:42;;;;;;;;;;;;;;;18.11;55.87;100247.06;2326182;75;51783;-77
2022/12/11 12:14:45;;;;;;;;;;;;;;;18.08;55.88;100238.08;2378712;75;50678;-78
2022/12/11 12:17:48;;;;;;;;;;;;;;;18.05;55.96;100237.44;2371036;73;50273;-78
2022/12/11 12:20:55;;;;;;;;;;;;;;;17.98;56.03;100232.54;2388452;73;52955;-78
2022/12/11 12:23:58;;;;;;;;;;;;;;;17.90;56.27;100237.16;2388926;73;51024;-78
2022/12/11 12:27:04;;;;;;;;;;;;;;;17.93;56.25;100238.97;2419555;72;50680;-78
2022/12/11 12:30:07;;;;;;;;;;;;;;;18.00;56.09;100241.19;2418515;73;50696;-78
2022/12/11 12:33:17;;;;;;;;;;;;;;;18.12;55.76;100238.03;2418342;73;50660;-77
2022/12/11 12:36:23;;;;;;;;;;;;;;;18.18;55.66;100242.62;2387875;72;52329;-78
2022/12/11 12:39:26;;;;;;;;;;;;;;;18.22;55.48;100238.03;2389578;73;51458;-78
2022/12/11 12:42:29;;;;;;;;;;;;;;;18.20;55.48;100237.91;2357583;74;51691;-76
2022/12/11 12:45:41;;;;;;;;;;;;;;;18.18;55.54;100238.59;2377215;75;51551;-77
2022/12/11 12:48:43;;;;;;;;;;;;;;;18.14;55.59;100236.00;2359867;73;51027;-77
2022/12/11 12:51:45;;;;;;;;;;;;;;;18.12;55.61;100231.34;2348360;75;50144;-77
2022/12/11 12:55:12;;;;;;;;;;;;;;;18.09;55.69;100231.72;2355434;75;50735;-77
2022/12/11 12:58:04;;;;;;;;;;;;;;;18.05;55.75;100226.73;2372711;74;22237;-77
2022/12/11 13:01:07;;;;;;;;;;;;;;;18.00;55.82;100226.47;2327901;75;52483;-77
2022/12/11 13:04:10;;;;;;;;;;;;;;;17.92;56.04;100229.27;2340389;74;51711;-77
2022/12/11 13:07:16;;;;;;;;;;;;;;;17.90;56.12;100219.77;2354631;73;50334;-75
2022/12/11 13:10:25;;;;;;;;;;;;;;;17.97;55.92;100218.81;2360301;74;51515;-75
2022/12/11 13:17:09;;;;;;;;;;;;;;;18.15;55.52;100220.24;2191463;79;22364;-76
2022/12/11 13:20:13;;;;;;;;;;;;;;;18.15;55.50;100221.58;2181091;79;50793;-76
2022/12/11 13:23:15;;;;;;;;;;;;;;;18.22;55.33;100223.83;2174990;81;49799;-75
2022/12/11 13:26:30;;;;;;;;;;;;;;;18.17;55.43;100220.89;2159734;81;50180;-74
2022/12/11 13:29:33;;;;;;;;;;;;;;;18.19;55.33;100217.52;2187795;81;50505;-78
2022/12/11 13:32:34;;;;;;;;;;;;;;;18.19;55.35;100213.50;2159673;81;51609;-78
2022/12/11 13:35:36;;;;;;;;;;;;;;;18.14;55.44;100215.92;2166751;81;50756;-81
2022/12/11 13:38:38;;;;;;;;;;;;;;;18.11;55.52;100223.83;2171514;81;50943;-78
2022/12/11 13:41:40;;;;;;;;;;;;;;;18.07;55.60;100218.52;2137100;82;53678;-78
2022/12/11 13:44:42;;;;;;;;;;;;;;;18.04;55.66;100224.25;2163985;81;50775;-75
2022/12/11 13:47:43;;;;;;;;;;;;;;;17.99;55.70;100218.12;2189515;79;50474;-75
2022/12/11 13:50:45;;;;;;;;;;;;;;;17.98;55.72;100211.13;2148147;81;51002;-77
2022/12/11 13:53:47;;;;;;;;;;;;;;;17.93;55.85;100208.67;2204043;79;51470;-77
2022/12/11 13:56:55;;;;;;;;;;;;;;;17.95;55.82;100211.48;2207866;79;50252;-77
2022/12/11 13:59:58;;;;;;;;;;;;;;;18.01;55.73;100211.26;2219353;79;51453;-77
2022/12/11 14:03:01;;;;;;;;;;;;;;;18.09;55.49;100208.97;2192284;80;49665;-77
2022/12/11 14:06:03;;;;;;;;;;;;;;;18.15;55.42;100205.52;2227353;79;50275;-76
2022/12/11 14:09:05;;;;;;;;;;;;;;;18.17;55.35;100204.82;2208340;79;50280;-78
2022/12/11 14:12:06;;;;;;;;;;;;;;;18.16;55.40;100210.69;2219300;80;51550;-77
2022/12/11 14:15:09;;;;;;;;;;;;;;;18.17;55.38;100203.48;2224522;79;51575;-77
2022/12/11 14:18:15;;;;;;;;;;;;;;;18.13;55.49;100209.70;2228704;77;50544;-77
2022/12/11 14:21:17;;;;;;;;;;;;;;;18.08;55.57;100202.76;2252041;76;50850;-77
2022/12/11 14:24:19;;;;;;;;;;;;;;;18.06;55.57;100203.48;2219125;80;50422;-77
2022/12/11 14:27:21;;;;;;;;;;;;;;;18.05;55.59;100212.52;2200659;80;51791;-77
2022/12/11 14:30:26;;;;;;;;;;;;;;;17.98;55.72;100209.78;2219736;79;52271;-77
2022/12/11 14:33:30;;;;;;;;;;;;;;;18.00;55.68;100212.26;2192395;80;51688;-78
2022/12/11 14:36:31;;;;;;;;;;;;;;;18.04;55.66;100207.67;2218202;80;50786;-76
2022/12/11 14:39:47;;;;;;;;;;;;;;;17.96;55.93;100210.48;2192815;80;52499;-78
2022/12/11 14:42:52;;;;;;;;;;;;;;;18.04;55.71;100202.33;2219004;79;51548;-77
2022/12/11 14:45:55;;;;;;;;;;;;;;;18.08;55.63;100199.26;2252421;79;51592;-77
2022/12/11 14:48:58;;;;;;;;;;;;;;;18.12;55.52;100194.67;2247482;79;50313;-76
2022/12/11 14:51:59;;;;;;;;;;;;;;;18.13;55.50;100194.98;2212363;80;51747;-77
2022/12/11 14:55:03;;;;;;;;;;;;;;;18.19;55.33;100194.75;2230990;79;50396;-76
2022/12/11 14:58:06;;;;;;;;;;;;;;;18.21;55.31;100196.70;2254036;79;50399;-75
2022/12/11 15:01:09;;;;;;;;;;;;;;;18.21;55.50;100199.38;2249447;79;51502;-74
2022/12/11 15:04:16;;;;;;;;;;;;;;;18.12;55.84;100204.56;2204983;79;52589;-74
2022/12/11 15:07:21;;;;;;;;;;;;;;;17.99;56.42;100207.94;2237930;79;50676;-74
2022/12/11 15:10:35;;;;;;;;;;;;;;;17.96;56.66;100200.28;2235964;79;50285;-74
2022/12/11 15:13:39;;;;;;;;;;;;;;;17.86;56.90;100194.41;2238964;79;50453;-73
2022/12/11 15:16:40;;;;;;;;;;;;;;;17.83;57.13;100201.80;2192264;79;51283;-74
2022/12/11 15:19:42;;;;;;;;;;;;;;;17.80;57.21;100202.17;2220780;79;50731;-74
2022/12/11 15:22:44;;;;;;;;;;;;;;;17.79;57.20;100205.00;2212894;79;50401;-74
2022/12/11 15:25:55;;;;;;;;;;;;;;;17.79;57.26;100207.67;2235067;78;50390;-73
2022/12/11 15:28:59;;;;;;;;;;;;;;;17.86;57.28;100208.62;2215881;79;52638;-74
2022/12/11 15:32:12;;;;;;;;;;;;;;;17.89;57.25;100212.77;2223044;79;50441;-74
2022/12/11 15:35:24;;;;;;;;;;;;;;;17.98;56.98;100209.78;2230865;79;24810;-75
2022/12/11 15:38:30;;;;;;;;;;;;;;;18.06;56.84;100209.66;2242374;79;51600;-74
2022/12/11 15:41:33;;;;;;;;;;;;;;;18.04;57.03;100205.00;2218601;79;49664;-73
2022/12/11 15:44:35;;;;;;;;;;;;;;;18.10;57.13;100205.26;2250543;79;51501;-75
2022/12/11 15:47:36;;;;;;;;;;;;;;;18.13;56.91;100211.56;2232449;79;51530;-72
2022/12/11 15:50:38;;;;;;;;;;;;;;;18.09;56.98;100204.44;2200317;80;51421;-74
2022/12/11 15:53:39;;;;;;;;;;;;;;;18.05;56.97;100208.50;2226389;79;50395;-71